Latest Weather Observations for Holsworthy

IDN60901

Issued at 12:21 pm EDT Thursday 2 April 2015 (issued every 10 minutes, with the page automatically refreshed every 10 minutes)

About weather observations | Map of Sydney area stations | Latest observations for Sydney area | Other Formats
Station Details ID: 066161 Name: HOLSWORTHY AERODROME AWS Lat: -33.99 Lon: 150.95 Height: 68.16 m
Data from the previous 72 hours. | See also: Recent months at Holsworthy
Date/Time
EDT
Tmp

°C
App
Tmp
°C
Dew
Point
°C
Rel
Hum
%
Delta-T

°C
Wind Press
QNH
hPa
Press
MSL
hPa
Rain
since
9 am
mm
Dir
 
Spd
km/h
Gust
km/h
Spd
kts
Gust
kts
02/12:00pm 24.4 25.9 18.1 68 4.0 N 7 11 4 6 1018.4 1018.2 0.0
02/11:30am 24.0 25.7 18.4 71 3.5 NW 7 11 4 6 1018.7 1018.5 0.0
02/11:00am 22.0 23.0 17.8 77 2.6 NNW 9 11 5 6 1018.9 1018.7 0.0
02/10:30am 20.7 23.5 18.8 89 1.2 WNW 2 7 1 4 1019.0 1018.8 0.0
02/10:11am 19.0 20.4 17.7 92 0.8 WSW 7 9 4 5 1019.0 1018.8 0.0
02/10:00am 18.8 20.2 17.8 94 0.6 WSW 7 9 4 5 1019.0 1018.8 0.0
02/09:30am 18.2 19.7 17.6 96 0.4 WSW 6 7 3 4 1019.0 1018.8 0.0
02/09:08am 17.3 18.2 16.7 96 0.4 WSW 7 9 4 5 1019.1 1018.9 0.0
02/09:00am 17.1 18.2 16.5 96 0.4 WSW 6 9 3 5 1019.1 1018.9 0.0
02/08:30am 17.0 18.8 16.4 96 0.4 NW 2 6 1 3 1018.7 1018.5 0.0
02/08:00am 16.5 18.5 15.9 96 0.4 CALM 0 0 0 0 1018.4 1018.2 0.0
02/07:30am 16.2 18.0 15.6 96 0.4 CALM 0 0 0 0 1018.1 1017.9 0.0
02/07:00am 15.7 17.4 15.1 96 0.3 CALM 0 0 0 0 1018.0 1017.8 0.0
02/06:30am 15.8 17.4 15.0 95 0.5 CALM 0 0 0 0 1017.9 1017.7 0.0
02/06:00am 15.4 16.9 14.6 95 0.5 CALM 0 0 0 0 1017.7 1017.5 0.0
02/05:30am 16.1 17.1 15.3 95 0.5 E 4 6 2 3 1017.5 1017.3 0.0
02/04:30am 16.5 18.4 15.7 95 0.5 CALM 0 0 0 0 1017.6 1017.4 0.0
02/04:00am 16.4 18.2 15.4 94 0.6 CALM 0 0 0 0 1017.7 1017.5 0.0
02/03:30am 16.6 18.4 15.6 94 0.6 CALM 0 0 0 0 1018.0 1017.8 0.0
02/03:00am 16.9 17.7 15.9 94 0.6 ESE 6 7 3 4 1018.3 1018.1 0.0
02/02:30am 17.3 19.4 16.3 94 0.6 CALM 0 0 0 0 1018.8 1018.6 0.0
02/02:00am 17.2 19.2 16.1 93 0.7 CALM 0 0 0 0 1019.1 1018.9 0.0
02/01:30am 17.7 19.9 16.4 92 0.8 CALM 0 4 0 2 1019.4 1019.2 0.0
02/01:00am 17.8 18.9 16.7 93 0.7 E 6 6 3 3 1019.6 1019.4 0.0
02/12:30am 17.9 20.1 16.6 92 0.8 CALM 0 0 0 0 1020.0 1019.8 0.0
02/12:00am 18.4 20.8 16.9 91 0.9 CALM 0 0 0 0 1020.2 1020.0 0.0
 
Date/Time
EDT
Tmp

°C
App
Tmp
°C
Dew
Point
°C
Rel
Hum
%
Delta-T

°C
Wind Press
QNH
hPa
Press
MSL
hPa
Rain
since
9 am
mm
Dir
 
Spd
km/h
Gust
km/h
Spd
kts
Gust
kts
01/11:30pm 19.0 21.5 17.3 90 1.0 CALM 0 0 0 0 1020.4 1020.2 0.0
01/11:00pm 19.2 20.5 17.2 88 1.2 ESE 6 7 3 4 1020.5 1020.3 0.0
01/10:30pm 20.3 21.9 17.9 86 1.5 NE 6 9 3 5 1020.7 1020.5 0.0
01/10:00pm 20.4 21.8 17.8 85 1.6 NE 7 9 4 5 1020.7 1020.5 0.0
01/09:30pm 20.7 22.1 17.9 84 1.7 ENE 7 9 4 5 1020.5 1020.3 0.0
01/09:00pm 20.7 22.2 17.7 83 1.8 ENE 6 9 3 5 1020.4 1020.2 0.0
01/08:30pm 21.1 22.2 17.9 82 2.0 ENE 9 13 5 7 1020.3 1020.1 0.0
01/08:00pm 21.6 22.6 17.8 79 2.4 ENE 9 15 5 8 1020.2 1020.0 0.0
01/07:30pm 21.8 22.0 17.6 77 2.6 ENE 13 17 7 9 1019.8 1019.6 0.0
01/07:00pm 22.3 22.8 17.4 74 3.0 ENE 11 15 6 8 1019.8 1019.6 0.0
01/06:30pm 23.0 23.9 17.5 71 3.4 ENE 9 13 5 7 1019.8 1019.6 0.0
01/06:00pm 23.7 24.3 17.7 69 3.7 ENE 11 19 6 10 1019.7 1019.5 0.0
01/05:30pm 23.7 24.8 18.1 71 3.5 NE 9 17 5 9 1019.9 1019.7 0.0
01/05:00pm 24.0 24.3 18.0 69 3.8 NE 13 20 7 11 1019.8 1019.6 0.0
01/04:30pm 25.0 25.4 17.2 62 4.9 NE 11 19 6 10 1019.7 1019.5 0.0
01/04:00pm 24.6 24.8 17.6 65 4.4 E 13 20 7 11 1020.0 1019.8 0.0
01/03:30pm 25.3 25.3 17.2 61 5.0 NNE 13 19 7 10 1020.2 1020.0 0.0
01/03:00pm 24.5 24.4 17.0 63 4.6 NNE 13 19 7 10 1020.7 1020.5 0.0
01/02:30pm 23.9 25.2 17.2 66 4.2 NNW 6 9 3 5 1021.3 1021.1 0.0
01/02:00pm 23.8 23.6 16.6 64 4.4 NNE 13 19 7 10 1021.8 1021.7 0.0
01/01:30pm 24.2 24.2 17.2 65 4.3 NNW 13 20 7 11 1022.4 1022.3 0.0
01/01:00pm 24.0 24.0 17.3 66 4.1 N 13 22 7 12 1023.0 1022.9 0.0
01/12:30pm 23.2 23.7 17.4 70 3.6 NNW 11 19 6 10 1023.8 1023.7 0.0
01/12:00pm 22.5 22.5 17.2 72 3.3 N 13 22 7 12 1024.3 1024.2 0.0
01/11:30am 22.9 23.5 18.7 77 2.7 N 13 20 7 11 1024.5 1024.4 0.0
01/11:00am 21.7 22.4 17.9 79 2.4 NNW 11 17 6 9 1024.8 1024.7 0.0
01/10:30am 20.8 21.7 17.6 82 2.0 N 9 13 5 7 1025.1 1024.9 0.0
01/10:00am 20.1 21.1 17.7 86 1.5 N 9 11 5 6 1025.1 1024.9 0.0
01/09:30am 19.0 21.7 17.8 93 0.7 CALM 0 6 0 3 1025.3 1025.1 0.0
01/09:00am 18.1 19.5 17.3 95 0.5 WSW 6 7 3 4 1025.2 1025.0 4.8
01/08:30am 17.2 18.1 16.6 96 0.4 W 7 11 4 6 1025.0 1024.8 4.8
01/08:00am 16.8 18.9 16.3 97 0.3 CALM 0 0 0 0 1024.6 1024.4 4.8
01/07:30am 16.3 18.2 15.8 97 0.3 CALM 0 7 0 4 1024.5 1024.3 4.8
01/07:00am 16.2 18.1 15.7 97 0.3 CALM 0 0 0 0 1024.4 1024.2 4.8
01/06:30am 16.1 17.6 15.6 97 0.3 S 2 11 1 6 1024.5 1024.3 4.6
01/06:00am 16.0 17.8 15.5 97 0.3 CALM 0 0 0 0 1024.1 1023.9 4.6
01/05:30am 15.9 15.6 15.4 97 0.3 SW 11 13 6 7 1023.8 1023.6 4.6
01/05:00am 15.7 15.7 15.2 97 0.3 SW 9 11 5 6 1023.9 1023.7 4.6
01/04:30am 16.3 16.5 15.8 97 0.3 SW 9 11 5 6 1024.0 1023.8 4.6
01/04:00am 16.3 16.5 15.8 97 0.3 SSW 9 15 5 8 1024.3 1024.1 4.6
01/03:30am 16.1 16.6 15.6 97 0.3 WSW 7 9 4 5 1024.5 1024.3 4.6
01/03:00am 15.8 15.1 15.3 97 0.3 NNW 13 19 7 10 1024.8 1024.6 4.2
01/02:30am 15.6 16.1 15.1 97 0.3 SW 6 7 3 4 1024.7 1024.5 3.2
01/02:00am 14.9 15.1 14.1 95 0.5 SW 6 9 3 5 1025.0 1024.8 3.2
01/01:30am 15.0 16.3 14.2 95 0.5 CALM 0 0 0 0 1025.4 1025.2 3.2
01/01:00am 15.3 16.7 14.5 95 0.5 CALM 0 0 0 0 1025.4 1025.2 3.2
01/12:30am 15.9 17.2 15.1 95 0.5 SSE 2 6 1 3 1025.7 1025.5 3.2
01/12:00am 15.6 17.1 14.6 94 0.6 CALM 0 7 0 4 1025.8 1025.6 3.2
 
Date/Time
EDT
Tmp

°C
App
Tmp
°C
Dew
Point
°C
Rel
Hum
%
Delta-T

°C
Wind Press
QNH
hPa
Press
MSL
hPa
Rain
since
9 am
mm
Dir
 
Spd
km/h
Gust
km/h
Spd
kts
Gust
kts
31/11:30pm 16.0 17.6 15.0 94 0.6 CALM 0 0 0 0 1025.8 1025.6 3.2
31/11:00pm 16.5 17.1 15.4 93 0.6 S 6 7 3 4 1026.1 1025.9 3.2
31/10:30pm 16.5 17.0 14.9 90 0.9 SSW 6 9 3 5 1026.3 1026.1 3.2
31/10:00pm 17.5 18.1 15.7 89 1.1 S 7 11 4 6 1026.4 1026.2 3.2
31/09:30pm 18.3 18.9 16.8 91 0.9 SSE 9 11 5 6 1026.3 1026.1 3.2
31/09:00pm 17.4 18.1 15.6 89 1.1 SSE 6 9 3 5 1026.3 1026.1 3.2
31/08:30pm 18.2 18.9 16.2 88 1.2 SE 7 9 4 5 1026.1 1025.9 3.2
31/08:00pm 19.1 19.1 17.2 89 1.2 SSE 13 20 7 11 1025.6 1025.4 3.2
31/07:30pm 18.6 19.2 16.9 90 1.0 SSE 9 13 5 7 1025.3 1025.1 3.2
31/07:00pm 19.1 19.7 16.7 86 1.4 SE 9 9 5 5 1025.3 1025.1 3.2
31/06:30pm 19.5 20.1 16.7 84 1.7 SSE 9 13 5 7 1025.3 1025.1 3.2
31/06:00pm 20.1 20.4 16.9 82 1.9 SE 11 13 6 7 1025.1 1024.9 3.2
31/05:30pm 21.1 20.5 16.7 76 2.7 SE 15 24 8 13 1024.8 1024.6 3.2
31/05:00pm 21.2 21.1 17.0 77 2.6 SSE 13 19 7 10 1024.9 1024.7 3.2
31/04:30pm 21.4 21.4 17.2 77 2.6 ESE 13 17 7 9 1024.8 1024.6 3.2
31/04:00pm 21.4 22.1 17.0 76 2.7 ESE 9 13 5 7 1025.0 1024.8 3.2
31/03:30pm 21.8 22.4 17.6 77 2.6 ENE 11 15 6 8 1025.1 1024.9 3.2
31/03:00pm 21.5 22.2 17.1 76 2.7 NE 9 13 5 7 1025.2 1025.0 3.2
31/02:30pm 20.4 21.4 17.8 85 1.6 ESE 9 15 5 8 1025.5 1025.3 3.2
31/02:00pm 19.4 20.9 18.1 92 0.8 S 7 11 4 6 1025.7 1025.5 3.2
31/01:30pm 18.9 19.9 17.7 93 0.7 SSE 9 13 5 7 1026.2 1026.0 3.2
31/01:00pm 18.6 18.2 17.1 91 0.9 E 15 20 8 11 1026.6 1026.4 0.8
31/12:30pm 21.4 20.0 16.6 74 2.9 SE 19 24 10 13 1026.6 1026.4 0.0
31/12:00pm 22.7 21.9 16.0 66 4.0 SE 15 24 8 13 1026.5 1026.3 0.0
31/11:30am 22.2 21.4 16.0 68 3.7 SSE 15 22 8 12 1026.9 1026.7 0.0
31/11:00am 21.8 21.1 16.3 71 3.3 SSE 15 20 8 11 1027.0 1026.8 0.0
31/10:30am 21.8 21.3 17.0 74 2.9 SSE 15 20 8 11 1027.0 1026.8 0.0
31/10:00am 21.3 21.3 17.3 78 2.4 SE 13 17 7 9 1027.0 1026.8 0.0
31/09:30am 19.2 20.5 17.0 87 1.3 W 6 7 3 4 1026.8 1026.6 0.0
31/09:00am 17.1 17.7 15.8 92 0.8 W 7 9 4 5 1026.4 1026.2 0.0
31/08:30am 16.4 16.5 15.4 94 0.6 WSW 9 11 5 6 1026.2 1026.0 0.0
31/08:00am 16.1 16.4 15.1 94 0.6 WSW 7 9 4 5 1025.9 1025.7 0.0
31/07:30am 16.2 16.6 15.2 94 0.6 WSW 7 9 4 5 1025.5 1025.3 0.0
31/07:00am 16.4 18.1 15.3 93 0.6 CALM 0 0 0 0 1025.2 1025.0 0.0
31/06:30am 16.5 18.3 15.4 93 0.6 CALM 0 0 0 0 1024.9 1024.7 0.0
31/06:00am 16.6 18.4 15.5 93 0.6 CALM 0 0 0 0 1024.6 1024.4 0.0
31/05:30am 16.9 17.5 15.8 93 0.6 SW 7 9 4 5 1024.4 1024.2 0.0
31/05:00am 17.0 17.8 15.9 93 0.6 SSW 6 9 3 5 1024.4 1024.2 0.0
31/04:30am 17.0 17.6 15.7 92 0.8 SW 7 9 4 5 1024.5 1024.3 0.0
31/04:00am 17.0 17.2 15.7 92 0.8 SW 9 13 5 7 1024.8 1024.6 0.0
31/03:30am 17.0 17.2 15.7 92 0.8 SW 9 13 5 7 1025.0 1024.8 0.0
31/03:00am 17.2 17.4 15.7 91 0.9 WSW 9 11 5 6 1025.1 1024.9 0.0
31/02:30am 17.7 18.1 16.2 91 0.9 WSW 9 11 5 6 1025.4 1025.2 0.0
31/02:00am 18.0 19.0 16.3 90 1.0 SW 6 7 3 4 1025.5 1025.3 0.0
31/01:30am 18.0 19.4 16.3 90 1.0 WNW 4 7 2 4 1025.7 1025.5 0.0
31/01:00am 18.2 19.5 16.2 88 1.2 NE 4 7 2 4 1025.6 1025.4 0.0
31/12:30am 18.5 18.4 16.1 86 1.4 E 11 13 6 7 1025.5 1025.3 0.0
31/12:00am 18.8 18.9 16.4 86 1.4 SSE 11 15 6 8 1025.3 1025.1 0.0
 
Date/Time
EDT
Tmp

°C
App
Tmp
°C
Dew
Point
°C
Rel
Hum
%
Delta-T

°C
Wind Press
QNH
hPa
Press
MSL
hPa
Rain
since
9 am
mm
Dir
 
Spd
km/h
Gust
km/h
Spd
kts
Gust
kts
30/11:30pm 18.9 19.3 16.3 85 1.6 SE 9 11 5 6 1025.6 1025.4 0.0
30/11:00pm 18.8 19.5 16.2 85 1.5 S 7 11 4 6 1025.5 1025.3 0.0
30/10:30pm 19.1 19.4 16.1 83 1.8 SSE 9 11 5 6 1025.4 1025.2 0.0
30/10:00pm 19.2 19.9 16.1 82 1.8 S 7 11 4 6 1025.4 1025.2 0.0
30/09:30pm 19.4 20.1 16.1 81 2.0 SSE 7 9 4 5 1025.5 1025.3 0.0
30/09:00pm 19.7 20.1 16.2 80 2.1 SE 9 9 5 5 1025.2 1025.0 0.0
30/08:30pm 20.1 20.4 16.1 78 2.4 SE 9 11 5 6 1025.1 1024.9 0.0
30/08:00pm 20.3 20.6 16.1 77 2.5 ESE 9 11 5 6 1024.8 1024.6 0.0
30/07:30pm 20.6 20.5 16.0 75 2.8 SE 11 13 6 7 1024.5 1024.3 0.0
30/07:00pm 21.0 21.2 15.8 72 3.1 ESE 9 13 5 7 1024.2 1024.0 0.0
30/06:30pm 21.2 21.5 16.0 72 3.1 E 9 13 5 7 1024.1 1023.9 0.0
30/06:00pm 21.6 21.1 15.9 70 3.4 ESE 13 22 7 12 1023.5 1023.3 0.0
30/05:30pm 22.1 20.6 14.2 61 4.6 E 15 22 8 12 1023.2 1023.0 0.0
30/05:00pm 22.2 20.5 14.8 63 4.4 E 17 24 9 13 1023.0 1022.8 0.0
30/04:30pm 22.8 21.2 16.1 66 4.1 E 19 24 10 13 1022.8 1022.6 0.0
30/04:00pm 23.8 21.8 13.9 54 5.8 ESE 17 24 9 13 1022.5 1022.3 0.0
30/03:30pm 23.9 21.7 13.2 51 6.2 E 17 22 9 12 1022.6 1022.4 0.0
30/03:00pm 23.6 21.9 12.6 50 6.3 E 13 19 7 10 1022.8 1022.6 0.0
30/02:30pm 23.7 23.5 14.7 57 5.4 ESE 9 17 5 9 1022.9 1022.7 0.0
30/02:00pm 22.2 21.8 14.1 60 4.7 E 9 13 5 7 1023.0 1022.8 0.0
30/01:30pm 21.7 21.2 13.9 61 4.5 ENE 9 15 5 8 1023.3 1023.1 0.0
30/01:00pm 20.9 21.9 14.3 66 3.8 SE 2 7 1 4 1023.7 1023.5 0.0
30/12:30pm 20.2 20.6 14.8 71 3.2 E 6 9 3 5 1023.9 1023.7 0.0

Latest Capital City Observations: Canberra | Sydney | Melbourne | Brisbane | Adelaide | Perth | Hobart | Darwin

Other Formats:

Comma delimited format used in spreadsheet applications
http://www.bom.gov.au/fwo/IDN60901/IDN60901.95761.axf

JavaScript Object Notation format (JSON) in row-major order
http://www.bom.gov.au/fwo/IDN60901/IDN60901.95761.json